Time;durP1;ratioP1;P1;durP2;ratioP2;P2;SDS_P1;SDS_P2;PMS_P1;PMS_P2;Temp;Humidity;BMP_temperature;BMP_pressure;BME280_temperature;BME280_humidity;BME280_pressure;Samples;Min_cycle;Max_cycle;Signal;HPM_P1;HPM_P2
2021/08/19 00:00:40;;;;;;;4.10;2.40;;;25.70;51.10;;;;;;5048895;28;20056;-63
2021/08/19 00:03:06;;;;;;;3.15;2.28;;;25.70;51.00;;;;;;5043329;28;20025;-64
2021/08/19 00:05:32;;;;;;;3.30;2.20;;;25.70;51.00;;;;;;5050732;28;20035;-63
2021/08/19 00:07:57;;;;;;;4.43;2.42;;;25.70;51.00;;;;;;5051640;28;20116;-64
2021/08/19 00:10:23;;;;;;;3.42;2.00;;;25.70;51.00;;;;;;5048410;28;20847;-65
2021/08/19 00:12:48;;;;;;;3.50;2.30;;;25.70;50.90;;;;;;5038076;28;20041;-66
2021/08/19 00:15:14;;;;;;;4.20;2.42;;;25.80;50.90;;;;;;5028673;28;20176;-65
2021/08/19 00:17:40;;;;;;;4.97;2.47;;;25.80;50.90;;;;;;5035126;28;20142;-65
2021/08/19 00:20:07;;;;;;;4.10;2.42;;;25.80;50.80;;;;;;5029339;28;20024;-64
2021/08/19 00:22:32;;;;;;;3.90;2.15;;;25.80;50.80;;;;;;5033231;28;20076;-66
2021/08/19 00:25:01;;;;;;;3.30;2.00;;;25.80;50.80;;;;;;5031864;28;20043;-68
2021/08/19 00:27:26;;;;;;;3.27;2.10;;;25.80;50.70;;;;;;5037245;28;20419;-65
2021/08/19 00:29:52;;;;;;;3.38;2.20;;;25.80;50.70;;;;;;5037871;28;20041;-63
2021/08/19 00:32:18;;;;;;;3.30;2.22;;;25.80;50.70;;;;;;5032994;28;20387;-65
2021/08/19 00:34:43;;;;;;;3.30;1.92;;;25.80;50.70;;;;;;5042326;28;20139;-64
2021/08/19 00:37:09;;;;;;;3.47;2.10;;;25.80;50.70;;;;;;5047754;28;20496;-65
2021/08/19 00:39:37;;;;;;;3.15;1.80;;;25.80;50.70;;;;;;5040356;28;20043;-64
2021/08/19 00:42:07;;;;;;;3.72;2.30;;;25.80;50.60;;;;;;5040990;28;20041;-63
2021/08/19 00:44:33;;;;;;;3.47;2.10;;;25.90;50.70;;;;;;5036086;28;20028;-64
2021/08/19 00:46:59;;;;;;;3.60;2.00;;;25.90;50.60;;;;;;5033443;28;20045;-65
2021/08/19 00:49:25;;;;;;;2.92;2.00;;;25.90;50.50;;;;;;5031494;28;20547;-66
2021/08/19 00:51:53;;;;;;;3.40;2.03;;;25.90;50.50;;;;;;5043278;28;20025;-62
2021/08/19 00:54:26;;;;;;;2.67;1.80;;;25.90;50.50;;;;;;5043448;28;20052;-64
2021/08/19 00:57:00;;;;;;;3.65;2.20;;;25.90;50.40;;;;;;5041510;28;20105;-66
2021/08/19 00:59:31;;;;;;;3.38;2.00;;;25.90;50.40;;;;;;5046184;28;20178;-64
2021/08/19 01:01:57;;;;;;;3.20;1.90;;;25.90;50.40;;;;;;5042131;28;20455;-64
2021/08/19 01:04:23;;;;;;;4.25;2.15;;;25.90;50.40;;;;;;5044182;28;20055;-64
2021/08/19 01:06:49;;;;;;;3.20;2.20;;;25.80;50.40;;;;;;5051461;28;20029;-62
2021/08/19 01:09:16;;;;;;;3.25;2.03;;;25.90;50.50;;;;;;5048168;28;20017;-64
2021/08/19 01:11:43;;;;;;;3.67;2.30;;;25.90;50.50;;;;;;5045326;28;20029;-65
2021/08/19 01:14:16;;;;;;;3.67;2.03;;;25.80;50.40;;;;;;5041709;28;20396;-65
2021/08/19 01:16:43;;;;;;;3.10;2.05;;;25.80;50.40;;;;;;5050328;28;20090;-65
2021/08/19 01:19:13;;;;;;;2.95;1.98;;;25.80;51.00;;;;;;5050678;28;20459;-63
2021/08/19 01:21:39;;;;;;;4.00;1.90;;;25.80;50.50;;;;;;5047476;28;20432;-63
2021/08/19 01:24:05;;;;;;;3.00;1.70;;;25.80;50.50;;;;;;5048006;28;20113;-64
2021/08/19 01:26:31;;;;;;;3.03;1.70;;;25.70;50.40;;;;;;5046624;28;20025;-64
2021/08/19 01:28:56;;;;;;;3.15;1.90;;;25.70;50.50;;;;;;5044280;28;20033;-65
2021/08/19 01:31:24;;;;;;;4.10;1.90;;;25.70;50.50;;;;;;5041792;28;20138;-65
2021/08/19 01:33:51;;;;;;;3.45;1.95;;;25.70;50.50;;;;;;5041308;28;20041;-63
2021/08/19 01:36:16;;;;;;;2.67;1.70;;;25.70;50.50;;;;;;5048632;28;20315;-63
2021/08/19 01:38:44;;;;;;;3.10;1.80;;;25.70;50.50;;;;;;5037876;28;20111;-64
2021/08/19 01:41:10;;;;;;;2.75;1.70;;;25.70;50.50;;;;;;5035086;28;20020;-64
2021/08/19 01:43:38;;;;;;;2.65;1.70;;;25.70;50.50;;;;;;5048200;28;20029;-63
2021/08/19 01:46:10;;;;;;;2.83;1.75;;;25.60;50.50;;;;;;5048243;28;20408;-64
2021/08/19 01:48:44;;;;;;;2.90;1.80;;;25.60;50.50;;;;;;5049461;28;20377;-63
2021/08/19 01:51:11;;;;;;;3.30;1.80;;;25.60;50.50;;;;;;5049403;28;20025;-63
2021/08/19 01:53:37;;;;;;;2.80;1.77;;;25.60;50.60;;;;;;5048148;28;20039;-64
2021/08/19 01:56:03;;;;;;;2.65;1.70;;;25.60;50.60;;;;;;5054405;28;20498;-66
2021/08/19 01:58:29;;;;;;;3.45;1.63;;;25.50;50.60;;;;;;5069861;28;20498;-62
2021/08/19 02:00:54;;;;;;;2.95;1.70;;;25.50;50.70;;;;;;5048462;28;20036;-65
2021/08/19 02:03:20;;;;;;;2.50;1.50;;;25.50;50.60;;;;;;5044392;28;20514;-65
2021/08/19 02:05:49;;;;;;;3.08;1.80;;;25.50;50.60;;;;;;5045788;28;20020;-65
2021/08/19 02:08:16;;;;;;;2.35;1.60;;;25.50;50.60;;;;;;5048858;28;20352;-64
2021/08/19 02:10:43;;;;;;;3.15;1.88;;;25.40;50.60;;;;;;5038784;28;20544;-64
2021/08/19 02:13:09;;;;;;;2.33;1.52;;;25.40;50.60;;;;;;5047397;28;20084;-64
2021/08/19 02:15:35;;;;;;;2.88;1.80;;;25.50;50.70;;;;;;5045909;28;20044;-66
2021/08/19 02:18:00;;;;;;;2.83;1.60;;;25.40;50.70;;;;;;5045026;28;20083;-65
2021/08/19 02:20:26;;;;;;;2.58;1.50;;;25.40;50.70;;;;;;5047227;28;20064;-63
2021/08/19 02:22:56;;;;;;;3.78;1.90;;;25.40;50.80;;;;;;5043957;28;20059;-64
2021/08/19 02:25:22;;;;;;;2.83;1.63;;;25.30;50.70;;;;;;5041070;28;20036;-64
2021/08/19 02:27:47;;;;;;;3.08;1.60;;;25.40;50.80;;;;;;5034755;28;20025;-65
2021/08/19 02:30:13;;;;;;;2.72;1.60;;;25.30;50.80;;;;;;5039138;28;20025;-65
2021/08/19 02:32:39;;;;;;;3.17;1.40;;;25.30;50.80;;;;;;5049317;28;20031;-64
2021/08/19 02:35:05;;;;;;;2.40;1.42;;;25.30;50.80;;;;;;5046033;28;20029;-65
2021/08/19 02:37:30;;;;;;;3.30;1.88;;;25.30;50.90;;;;;;5045734;28;20365;-63
2021/08/19 02:39:56;;;;;;;2.95;1.52;;;25.20;50.90;;;;;;5047824;28;20064;-64
2021/08/19 02:42:22;;;;;;;2.25;1.52;;;25.20;50.90;;;;;;5040330;28;20128;-65
2021/08/19 02:44:48;;;;;;;2.50;1.50;;;25.20;51.00;;;;;;5046804;28;20029;-64
2021/08/19 02:47:13;;;;;;;2.67;1.60;;;25.20;51.00;;;;;;5047648;28;20037;-66
2021/08/19 02:49:39;;;;;;;2.10;1.40;;;25.20;51.00;;;;;;5045933;28;20021;-62
2021/08/19 02:52:05;;;;;;;3.08;1.45;;;25.10;51.00;;;;;;5048512;28;20482;-64
2021/08/19 02:54:31;;;;;;;2.63;1.50;;;25.10;51.50;;;;;;5039334;28;20524;-62
2021/08/19 02:56:56;;;;;;;2.38;1.60;;;25.10;51.10;;;;;;5044913;28;20128;-64
2021/08/19 02:59:22;;;;;;;2.50;1.50;;;25.10;51.10;;;;;;5050295;28;20025;-61
2021/08/19 03:01:48;;;;;;;2.15;1.35;;;25.00;51.10;;;;;;5047525;28;21788;-62
2021/08/19 03:04:13;;;;;;;2.15;1.50;;;25.10;51.10;;;;;;5045310;28;20059;-64
2021/08/19 03:06:39;;;;;;;2.53;1.25;;;25.00;51.10;;;;;;5045530;28;20116;-62
2021/08/19 03:09:04;;;;;;;2.33;1.48;;;25.00;51.10;;;;;;5041411;28;20100;-64
2021/08/19 03:11:30;;;;;;;2.40;1.48;;;25.00;51.10;;;;;;5042864;28;20029;-64
2021/08/19 03:13:56;;;;;;;2.25;1.25;;;25.00;51.20;;;;;;5050959;28;20344;-67
2021/08/19 03:16:21;;;;;;;1.88;1.23;;;25.00;51.20;;;;;;5039533;28;20330;-65
2021/08/19 03:18:47;;;;;;;2.15;1.38;;;25.00;51.20;;;;;;5035691;28;20103;-64
2021/08/19 03:21:13;;;;;;;1.90;1.30;;;25.00;51.20;;;;;;5045663;28;20337;-65
2021/08/19 03:23:38;;;;;;;2.42;1.33;;;24.90;51.20;;;;;;5052136;28;20037;-66
2021/08/19 03:26:05;;;;;;;2.17;1.40;;;25.00;51.30;;;;;;5048334;28;20033;-65
2021/08/19 03:28:32;;;;;;;2.75;1.42;;;24.90;51.20;;;;;;5043872;28;20318;-64
2021/08/19 03:30:58;;;;;;;2.33;1.48;;;24.90;51.30;;;;;;5045045;28;20029;-63
2021/08/19 03:33:24;;;;;;;1.65;1.10;;;24.90;51.30;;;;;;5035737;28;20044;-63
2021/08/19 03:35:50;;;;;;;2.00;1.25;;;24.90;51.30;;;;;;5046394;28;20032;-64
2021/08/19 03:38:16;;;;;;;1.98;1.20;;;24.90;51.30;;;;;;5044347;28;20029;-63
2021/08/19 03:40:41;;;;;;;2.17;1.33;;;24.90;51.30;;;;;;5041410;28;20063;-64
2021/08/19 03:43:07;;;;;;;2.30;1.30;;;24.90;51.30;;;;;;5042541;28;20041;-64
2021/08/19 03:45:33;;;;;;;2.00;1.30;;;24.90;51.30;;;;;;5048102;28;20067;-64
2021/08/19 03:47:58;;;;;;;2.80;1.30;;;24.80;51.30;;;;;;5027686;28;20029;-63
2021/08/19 03:50:24;;;;;;;2.10;1.30;;;24.80;51.30;;;;;;5043907;28;20468;-64
2021/08/19 03:52:50;;;;;;;1.90;1.20;;;24.80;51.30;;;;;;5046001;28;20032;-65
2021/08/19 03:55:16;;;;;;;2.20;1.20;;;24.80;51.30;;;;;;5040345;28;20028;-65
2021/08/19 03:57:42;;;;;;;1.80;1.30;;;24.80;51.30;;;;;;5042621;28;20104;-63
2021/08/19 04:00:08;;;;;;;2.35;1.33;;;24.80;51.40;;;;;;5045602;28;20028;-65
2021/08/19 04:02:33;;;;;;;1.98;1.27;;;24.80;51.40;;;;;;5046259;28;20496;-66
2021/08/19 04:04:59;;;;;;;2.40;1.40;;;24.80;51.40;;;;;;5044209;28;20033;-65
2021/08/19 04:07:25;;;;;;;1.55;1.05;;;24.80;51.40;;;;;;5044593;28;20068;-67
2021/08/19 04:09:51;;;;;;;2.15;1.30;;;24.80;51.40;;;;;;5038779;28;20102;-68
2021/08/19 04:12:17;;;;;;;2.15;1.25;;;24.80;51.40;;;;;;5039208;28;20064;-65
2021/08/19 04:14:43;;;;;;;2.42;1.30;;;24.80;51.40;;;;;;5045564;28;20104;-66
2021/08/19 04:17:09;;;;;;;1.55;1.20;;;24.70;51.40;;;;;;5047386;28;20135;-64
2021/08/19 04:19:34;;;;;;;1.70;1.10;;;24.70;51.40;;;;;;5046403;28;20039;-67
2021/08/19 04:22:00;;;;;;;2.22;1.15;;;24.70;51.40;;;;;;5041718;28;20101;-65
2021/08/19 04:24:25;;;;;;;2.15;1.27;;;24.70;51.40;;;;;;5034589;28;20028;-65
2021/08/19 04:26:51;;;;;;;1.42;1.00;;;24.70;51.40;;;;;;5045247;28;20032;-65
2021/08/19 04:29:17;;;;;;;1.55;1.10;;;24.70;51.50;;;;;;5044906;28;20017;-65
2021/08/19 04:31:42;;;;;;;1.45;0.90;;;24.70;51.50;;;;;;5046978;28;20033;-65
2021/08/19 04:34:08;;;;;;;1.77;1.27;;;24.70;51.50;;;;;;5044265;28;20029;-66
2021/08/19 04:36:34;;;;;;;1.48;1.00;;;24.70;51.50;;;;;;5045363;28;20083;-65
2021/08/19 04:38:59;;;;;;;1.98;1.25;;;24.60;51.50;;;;;;5028308;28;20108;-65
2021/08/19 04:41:25;;;;;;;1.80;1.20;;;24.60;51.50;;;;;;5028494;28;20111;-64
2021/08/19 04:43:51;;;;;;;1.60;1.15;;;24.60;51.50;;;;;;5045171;28;20124;-63
2021/08/19 04:46:16;;;;;;;2.00;1.20;;;24.60;51.50;;;;;;5049829;28;20103;-65
2021/08/19 04:48:42;;;;;;;2.30;1.20;;;24.60;51.50;;;;;;5046697;28;20084;-62
2021/08/19 04:51:08;;;;;;;1.63;1.10;;;24.60;51.60;;;;;;5027996;28;20523;-63
2021/08/19 04:53:34;;;;;;;2.10;1.10;;;24.60;51.50;;;;;;5035045;28;20510;-64
2021/08/19 04:56:00;;;;;;;1.48;1.00;;;24.60;51.50;;;;;;5046312;28;20482;-65
2021/08/19 04:58:28;;;;;;;1.85;1.17;;;24.60;51.60;;;;;;5038274;28;20045;-66
2021/08/19 05:00:54;;;;;;;2.40;1.40;;;24.60;51.60;;;;;;5044615;28;20357;-63
2021/08/19 05:03:20;;;;;;;2.75;1.30;;;24.60;51.60;;;;;;5046011;28;20132;-63
2021/08/19 05:05:45;;;;;;;1.70;1.00;;;24.60;51.60;;;;;;5044205;28;20211;-64
2021/08/19 05:08:11;;;;;;;1.90;1.05;;;24.60;51.60;;;;;;5039978;28;20110;-65
2021/08/19 05:10:37;;;;;;;1.85;1.08;;;24.60;51.60;;;;;;5028980;28;20037;-67
2021/08/19 05:13:02;;;;;;;1.60;1.10;;;24.60;51.60;;;;;;5043460;28;20064;-66
2021/08/19 05:15:28;;;;;;;1.40;1.10;;;24.60;51.70;;;;;;5041923;28;20071;-65
2021/08/19 05:17:54;;;;;;;1.83;1.27;;;24.60;51.70;;;;;;5042439;28;20059;-66
2021/08/19 05:20:20;;;;;;;1.60;1.10;;;24.50;51.60;;;;;;5059574;28;20025;-67
2021/08/19 05:22:45;;;;;;;1.63;1.08;;;24.60;51.70;;;;;;5041868;28;20021;-63
2021/08/19 05:25:11;;;;;;;1.92;1.30;;;24.50;51.60;;;;;;5045482;28;20025;-67
2021/08/19 05:27:37;;;;;;;2.55;1.80;;;24.50;51.70;;;;;;5042598;28;20021;-65
2021/08/19 05:30:03;;;;;;;1.55;1.00;;;24.50;51.70;;;;;;5043776;28;20051;-65
2021/08/19 05:32:29;;;;;;;1.52;1.08;;;24.50;51.70;;;;;;5043935;28;20151;-65
2021/08/19 05:34:56;;;;;;;1.48;1.00;;;24.50;51.70;;;;;;5046291;28;20144;-64
2021/08/19 05:37:22;;;;;;;1.52;0.93;;;24.50;51.70;;;;;;5040249;28;20108;-65
2021/08/19 05:39:48;;;;;;;2.45;1.27;;;24.50;51.70;;;;;;5047136;28;20113;-67
2021/08/19 05:42:13;;;;;;;1.27;1.00;;;24.40;51.70;;;;;;5048646;28;20075;-63
2021/08/19 05:44:39;;;;;;;1.85;1.20;;;24.50;51.70;;;;;;5032346;28;20031;-66
2021/08/19 05:47:08;;;;;;;1.25;1.00;;;24.40;51.70;;;;;;5036122;28;20044;-64
2021/08/19 05:49:41;;;;;;;1.73;1.00;;;24.40;51.70;;;;;;5039194;28;20037;-62
2021/08/19 05:52:08;;;;;;;2.00;1.30;;;24.40;51.70;;;;;;5044068;28;20036;-65
2021/08/19 05:54:36;;;;;;;2.72;1.50;;;24.40;51.90;;;;;;5038914;28;20021;-63
2021/08/19 05:57:02;;;;;;;3.20;1.50;;;24.40;52.00;;;;;;5048182;28;20621;-66
2021/08/19 05:59:28;;;;;;;3.30;1.50;;;24.30;52.20;;;;;;5047554;28;20488;-65
2021/08/19 06:01:54;;;;;;;2.65;1.70;;;24.30;52.50;;;;;;5047534;28;20029;-65
2021/08/19 06:04:20;;;;;;;3.22;1.70;;;24.20;52.80;;;;;;5045406;28;20443;-67
2021/08/19 06:06:45;;;;;;;3.05;1.63;;;24.10;53.20;;;;;;5043325;28;20116;-67
2021/08/19 06:09:12;;;;;;;2.75;1.70;;;24.00;54.00;;;;;;5045137;28;20079;-63
2021/08/19 06:11:38;;;;;;;2.67;1.60;;;23.90;54.10;;;;;;5035816;28;20068;-67
2021/08/19 06:14:03;;;;;;;2.88;1.80;;;23.80;54.10;;;;;;5043582;28;20372;-65
2021/08/19 06:16:29;;;;;;;3.30;2.00;;;23.80;54.10;;;;;;5047909;28;20108;-64
2021/08/19 06:18:56;;;;;;;4.00;1.90;;;23.70;54.30;;;;;;5039914;28;20033;-66
2021/08/19 06:21:22;;;;;;;3.13;1.60;;;23.60;54.50;;;;;;5046109;28;20048;-66
2021/08/19 06:23:47;;;;;;;3.55;1.88;;;23.60;54.60;;;;;;5040008;28;20021;-66
2021/08/19 06:26:13;;;;;;;4.45;1.85;;;23.50;54.60;;;;;;5047370;28;20459;-64
2021/08/19 06:28:38;;;;;;;3.17;1.85;;;23.60;54.60;;;;;;5043605;28;20029;-65
2021/08/19 06:31:04;;;;;;;2.80;1.75;;;23.50;54.70;;;;;;5034400;28;20105;-63
2021/08/19 06:33:30;;;;;;;3.50;1.85;;;23.60;54.80;;;;;;5043836;28;20030;-66
2021/08/19 06:35:55;;;;;;;4.07;2.38;;;23.40;55.10;;;;;;5041670;28;20025;-62
2021/08/19 06:38:21;;;;;;;4.00;2.20;;;23.40;55.20;;;;;;5046951;28;20032;-65
2021/08/19 06:40:47;;;;;;;4.65;1.70;;;23.20;55.40;;;;;;5041009;28;20025;-65
2021/08/19 06:43:12;;;;;;;3.10;1.85;;;23.10;55.50;;;;;;5031217;28;20048;-64
2021/08/19 06:45:38;;;;;;;3.33;1.55;;;23.00;55.80;;;;;;5042745;28;20108;-65
2021/08/19 06:48:04;;;;;;;2.42;1.40;;;23.00;55.60;;;;;;5026956;28;20466;-65
2021/08/19 06:50:30;;;;;;;2.13;1.40;;;23.10;55.40;;;;;;5034403;28;20851;-64
2021/08/19 06:52:55;;;;;;;1.65;1.10;;;23.10;55.10;;;;;;5036110;28;20045;-64
2021/08/19 06:55:21;;;;;;;1.88;1.23;;;23.20;55.00;;;;;;5033665;28;20053;-64
2021/08/19 06:57:47;;;;;;;2.50;1.40;;;23.20;54.90;;;;;;5041798;28;20040;-65
2021/08/19 07:00:13;;;;;;;2.35;1.20;;;23.30;54.80;;;;;;5045405;28;20033;-65
2021/08/19 07:02:38;;;;;;;2.63;1.13;;;23.30;54.60;;;;;;5041381;28;20022;-65
2021/08/19 07:05:06;;;;;;;1.60;1.15;;;23.30;54.50;;;;;;5041464;28;20069;-65
2021/08/19 07:07:31;;;;;;;2.42;1.23;;;23.40;54.40;;;;;;5037848;28;20018;-65
2021/08/19 07:09:59;;;;;;;2.25;1.25;;;23.40;54.40;;;;;;5032955;28;20103;-65
2021/08/19 07:12:25;;;;;;;1.48;1.00;;;23.40;54.30;;;;;;5038084;28;20120;-65
2021/08/19 07:14:51;;;;;;;3.28;1.33;;;23.40;54.20;;;;;;5037928;28;20222;-66
2021/08/19 07:17:16;;;;;;;1.75;1.10;;;23.40;54.10;;;;;;5043977;28;20028;-65
2021/08/19 07:19:42;;;;;;;2.17;1.23;;;23.40;54.10;;;;;;5044306;28;20901;-66
2021/08/19 07:22:08;;;;;;;1.52;1.10;;;23.40;54.00;;;;;;5046007;28;20049;-64
2021/08/19 07:24:34;;;;;;;2.38;1.20;;;23.50;54.10;;;;;;5045642;28;20036;-64
2021/08/19 07:26:59;;;;;;;1.80;1.15;;;23.50;54.00;;;;;;5041373;28;20028;-64
2021/08/19 07:29:25;;;;;;;1.80;1.27;;;23.50;54.00;;;;;;5045525;28;20052;-65
2021/08/19 07:31:50;;;;;;;2.17;1.10;;;23.50;53.90;;;;;;5052653;28;20087;-65
2021/08/19 07:34:16;;;;;;;1.90;1.13;;;23.50;53.90;;;;;;5051000;28;20044;-66
2021/08/19 07:36:42;;;;;;;1.10;0.80;;;23.50;53.90;;;;;;5055480;28;20033;-65
2021/08/19 07:39:07;;;;;;;1.60;1.10;;;23.50;53.80;;;;;;5047015;28;20107;-65
2021/08/19 07:41:34;;;;;;;1.63;1.17;;;23.50;53.80;;;;;;5040475;28;20118;-66
2021/08/19 07:44:00;;;;;;;2.25;1.00;;;23.50;53.80;;;;;;5041923;28;20087;-65
2021/08/19 07:46:27;;;;;;;1.90;1.23;;;23.50;53.80;;;;;;5043735;28;20105;-65
2021/08/19 07:48:56;;;;;;;1.30;0.90;;;23.50;53.80;;;;;;5038263;28;20021;-65
2021/08/19 07:51:22;;;;;;;1.45;1.00;;;23.50;53.80;;;;;;5047131;28;20028;-66
2021/08/19 07:53:47;;;;;;;1.70;1.00;;;23.60;53.80;;;;;;5043780;28;20025;-65
2021/08/19 07:56:13;;;;;;;1.77;0.98;;;23.60;53.70;;;;;;5059085;28;20025;-65
2021/08/19 07:58:38;;;;;;;1.63;1.08;;;23.60;53.70;;;;;;5039178;28;20045;-64
2021/08/19 08:01:04;;;;;;;1.50;1.20;;;23.60;53.70;;;;;;5037839;28;20476;-65
2021/08/19 08:03:30;;;;;;;1.58;0.90;;;23.60;53.70;;;;;;5046851;28;20036;-65
2021/08/19 08:05:55;;;;;;;1.60;1.10;;;23.60;53.70;;;;;;5041227;28;20338;-63
2021/08/19 08:08:21;;;;;;;2.78;1.10;;;23.60;53.60;;;;;;5046940;28;20072;-66
2021/08/19 08:10:47;;;;;;;1.88;1.10;;;23.60;53.60;;;;;;5032569;28;20029;-64
2021/08/19 08:13:13;;;;;;;2.13;1.20;;;23.60;53.60;;;;;;5028033;28;20478;-66
2021/08/19 08:15:40;;;;;;;1.70;1.10;;;23.60;53.60;;;;;;5043459;28;20132;-66
2021/08/19 08:18:06;;;;;;;1.58;1.10;;;23.60;53.60;;;;;;5046689;28;20086;-62
2021/08/19 08:20:33;;;;;;;1.83;1.10;;;23.60;53.50;;;;;;5053349;28;20025;-66
2021/08/19 08:22:59;;;;;;;1.23;1.05;;;23.60;53.50;;;;;;5046448;28;20519;-64
2021/08/19 08:25:24;;;;;;;1.60;0.95;;;23.60;53.50;;;;;;5049132;28;20036;-65
2021/08/19 08:27:59;;;;;;;1.50;1.05;;;23.60;53.40;;;;;;5029950;28;20512;-65
2021/08/19 08:30:27;;;;;;;1.45;1.02;;;23.60;53.50;;;;;;5034343;28;20045;-65
2021/08/19 08:32:53;;;;;;;1.33;0.82;;;23.60;53.40;;;;;;5043844;28;20025;-64
2021/08/19 08:35:18;;;;;;;1.60;1.10;;;23.60;53.40;;;;;;5046420;28;20036;-63
2021/08/19 08:37:44;;;;;;;1.90;1.13;;;23.60;53.40;;;;;;5040190;28;20115;-64
2021/08/19 08:40:12;;;;;;;1.50;1.05;;;23.60;53.40;;;;;;5046578;28;20112;-67
2021/08/19 08:42:39;;;;;;;2.17;1.25;;;23.60;53.40;;;;;;5046111;28;20037;-65
2021/08/19 08:45:04;;;;;;;1.17;1.00;;;23.60;53.40;;;;;;5039817;28;20134;-64
2021/08/19 08:47:34;;;;;;;1.33;1.08;;;23.60;53.40;;;;;;5046609;28;20164;-66
2021/08/19 08:50:01;;;;;;;1.52;0.95;;;23.70;53.40;;;;;;5029207;28;20641;-65
2021/08/19 08:52:28;;;;;;;1.00;0.80;;;23.60;53.40;;;;;;5037111;28;20021;-66
2021/08/19 08:54:55;;;;;;;1.38;1.00;;;23.60;53.40;;;;;;5042671;28;20156;-67
2021/08/19 08:57:22;;;;;;;1.40;1.00;;;23.60;53.40;;;;;;5046082;28;20040;-63
2021/08/19 08:59:47;;;;;;;1.35;1.10;;;23.60;53.40;;;;;;5036407;28;20047;-67
2021/08/19 09:02:13;;;;;;;1.30;0.90;;;23.60;53.50;;;;;;5044150;28;20085;-65
2021/08/19 09:04:39;;;;;;;1.45;1.05;;;23.60;53.30;;;;;;5046753;28;20065;-66
2021/08/19 09:07:05;;;;;;;1.27;1.05;;;23.60;53.30;;;;;;5044817;28;20150;-64
2021/08/19 09:09:31;;;;;;;1.27;0.90;;;23.70;53.40;;;;;;5035365;28;20250;-65
2021/08/19 09:12:01;;;;;;;1.20;0.90;;;23.70;53.40;;;;;;5042387;28;20041;-64
2021/08/19 09:14:32;;;;;;;1.25;0.90;;;23.70;53.30;;;;;;5045913;28;20330;-64
2021/08/19 09:16:58;;;;;;;1.20;0.90;;;23.70;53.30;;;;;;5052889;28;20102;-67
2021/08/19 09:19:30;;;;;;;1.90;0.98;;;23.70;53.30;;;;;;5055358;28;20028;-63
2021/08/19 09:21:58;;;;;;;0.98;0.88;;;23.70;53.30;;;;;;5049503;28;20124;-64
2021/08/19 09:24:25;;;;;;;2.03;1.10;;;23.60;53.30;;;;;;5049492;28;20036;-64
2021/08/19 09:26:53;;;;;;;2.13;1.00;;;23.70;53.30;;;;;;5049833;28;20143;-65
2021/08/19 09:29:29;;;;;;;1.38;0.90;;;23.70;53.30;;;;;;5043012;28;20037;-65
2021/08/19 09:32:07;;;;;;;1.08;0.85;;;23.70;53.30;;;;;;5047412;28;20040;-63
2021/08/19 09:34:35;;;;;;;1.30;0.90;;;23.70;53.30;;;;;;5049426;28;20033;-65
2021/08/19 09:37:03;;;;;;;1.33;0.90;;;23.70;53.30;;;;;;5049914;28;20025;-65
2021/08/19 09:39:40;;;;;;;1.10;0.90;;;23.70;53.80;;;;;;5049729;28;20170;-65
2021/08/19 09:42:07;;;;;;;1.20;1.00;;;23.70;53.30;;;;;;5046242;28;20041;-65
2021/08/19 09:44:38;;;;;;;2.42;1.00;;;23.70;53.30;;;;;;5035094;28;20465;-65
2021/08/19 09:47:06;;;;;;;1.83;0.90;;;23.70;53.30;;;;;;5038705;28;20030;-66
2021/08/19 09:49:35;;;;;;;1.05;0.90;;;23.70;53.30;;;;;;5046531;28;20040;-64
2021/08/19 09:52:11;;;;;;;1.45;0.85;;;23.70;53.30;;;;;;5046164;28;20389;-65
2021/08/19 09:54:39;;;;;;;1.10;0.80;;;23.70;53.30;;;;;;5044335;28;20067;-64
2021/08/19 09:57:06;;;;;;;1.50;1.00;;;23.70;53.30;;;;;;5048157;28;20741;-64
2021/08/19 09:59:35;;;;;;;1.20;0.90;;;23.70;53.20;;;;;;5048276;28;20437;-66
2021/08/19 10:02:02;;;;;;;1.25;0.75;;;23.70;53.20;;;;;;5044359;28;20025;-65
2021/08/19 10:04:27;;;;;;;0.85;0.80;;;23.70;53.30;;;;;;5053452;28;20036;-66
2021/08/19 10:06:54;;;;;;;2.47;0.90;;;23.70;53.30;;;;;;5048658;28;20356;-66
2021/08/19 10:09:21;;;;;;;2.03;0.98;;;23.70;53.20;;;;;;5049348;28;20028;-65
2021/08/19 10:11:48;;;;;;;1.30;0.80;;;23.70;53.30;;;;;;5041092;28;20020;-66
2021/08/19 10:14:17;;;;;;;0.93;0.85;;;23.70;53.20;;;;;;5042454;28;20043;-67
2021/08/19 10:16:44;;;;;;;0.95;0.80;;;23.80;53.30;;;;;;5044753;28;20025;-66
2021/08/19 10:19:14;;;;;;;1.13;0.90;;;23.70;53.30;;;;;;5044925;28;20037;-66
2021/08/19 10:21:43;;;;;;;1.42;0.85;;;23.70;53.20;;;;;;5045706;28;20123;-65
2021/08/19 10:24:11;;;;;;;2.63;0.90;;;23.80;53.20;;;;;;5043142;28;20032;-66
2021/08/19 10:26:37;;;;;;;0.73;0.70;;;23.70;53.10;;;;;;5043926;28;20013;-64
2021/08/19 10:29:03;;;;;;;0.85;0.70;;;23.80;53.20;;;;;;5045950;28;20094;-63
2021/08/19 10:31:46;;;;;;;1.45;0.88;;;23.80;53.20;;;;;;5045334;28;20086;-65
2021/08/19 10:34:14;;;;;;;0.80;0.70;;;23.80;53.20;;;;;;5046689;28;20104;-65
2021/08/19 10:36:46;;;;;;;0.90;0.73;;;23.80;53.20;;;;;;5042563;28;20477;-63
2021/08/19 10:39:23;;;;;;;1.05;0.75;;;23.80;53.20;;;;;;5036784;28;20094;-65
2021/08/19 10:41:50;;;;;;;0.80;0.70;;;23.80;53.20;;;;;;5043029;28;20028;-66
2021/08/19 10:44:16;;;;;;;1.10;0.80;;;23.80;53.20;;;;;;5033438;28;20029;-66
2021/08/19 10:46:44;;;;;;;1.02;0.80;;;23.80;53.20;;;;;;5039109;28;20043;-66
2021/08/19 10:49:31;;;;;;;1.35;0.75;;;23.80;53.20;;;;;;5044674;28;20025;-64
2021/08/19 10:52:09;;;;;;;1.40;1.00;;;23.80;53.20;;;;;;5038346;28;20036;-63
2021/08/19 10:54:39;;;;;;;1.20;0.75;;;23.80;53.20;;;;;;5039812;28;20139;-64
2021/08/19 10:57:32;;;;;;;1.33;0.80;;;23.90;53.20;;;;;;5037098;28;20770;-66
2021/08/19 11:00:02;;;;;;;1.33;0.80;;;23.90;53.20;;;;;;5029585;28;20044;-64
2021/08/19 11:02:42;;;;;;;1.10;0.80;;;23.90;53.10;;;;;;5042327;28;20029;-63
2021/08/19 11:05:27;;;;;;;1.27;0.90;;;23.90;53.20;;;;;;5043702;28;20069;-65
2021/08/19 11:07:56;;;;;;;1.30;0.98;;;23.90;53.10;;;;;;5041626;28;20455;-63
2021/08/19 11:10:27;;;;;;;0.90;0.70;;;23.90;53.10;;;;;;5038102;28;20104;-66
2021/08/19 11:13:00;;;;;;;1.00;0.80;;;23.90;53.10;;;;;;5041089;28;20045;-66
2021/08/19 11:15:25;;;;;;;0.90;0.70;;;23.90;53.10;;;;;;5044171;28;20027;-63
2021/08/19 11:17:53;;;;;;;0.88;0.70;;;23.90;53.10;;;;;;5039544;28;20033;-66
2021/08/19 11:20:21;;;;;;;1.08;0.82;;;23.90;53.10;;;;;;5044883;28;20125;-64
2021/08/19 11:23:01;;;;;;;1.05;0.75;;;23.90;53.10;;;;;;5041210;28;20021;-65
2021/08/19 11:25:27;;;;;;;0.90;0.80;;;23.90;53.00;;;;;;5038261;28;20040;-65
2021/08/19 11:27:55;;;;;;;1.33;0.80;;;23.90;53.00;;;;;;5039697;28;20076;-64
2021/08/19 11:30:33;;;;;;;1.00;0.70;;;23.90;53.00;;;;;;5044538;28;20108;-65
2021/08/19 11:33:16;;;;;;;1.20;0.70;;;23.90;53.00;;;;;;5041270;28;20037;-63
2021/08/19 11:35:44;;;;;;;1.23;0.90;;;23.90;52.90;;;;;;5033944;28;20052;-64
2021/08/19 11:38:15;;;;;;;1.17;0.80;;;23.90;52.90;;;;;;5038026;28;20037;-66
2021/08/19 11:40:44;;;;;;;1.33;0.80;;;23.90;52.80;;;;;;5038065;28;20041;-65
2021/08/19 11:43:18;;;;;;;0.98;0.80;;;23.90;52.80;;;;;;5042521;28;20128;-66
2021/08/19 11:45:45;;;;;;;1.30;0.85;;;23.90;52.80;;;;;;5027145;28;20083;-64
2021/08/19 11:48:16;;;;;;;1.35;0.90;;;23.90;52.70;;;;;;5037831;28;20025;-67
2021/08/19 11:50:42;;;;;;;1.48;0.77;;;24.00;52.60;;;;;;5040954;28;20036;-66
2021/08/19 11:53:08;;;;;;;1.88;1.00;;;24.00;52.60;;;;;;5041250;28;20450;-63
2021/08/19 11:55:36;;;;;;;1.45;1.00;;;24.00;52.50;;;;;;5042537;28;20044;-66
2021/08/19 11:58:15;;;;;;;1.95;0.90;;;24.00;52.40;;;;;;5039424;28;20694;-66
2021/08/19 12:01:01;;;;;;;1.60;0.90;;;24.00;52.40;;;;;;5041334;28;20119;-65
2021/08/19 12:03:26;;;;;;;1.67;0.85;;;24.00;52.30;;;;;;5040834;28;20041;-66
2021/08/19 12:06:18;;;;;;;1.38;0.80;;;24.00;52.30;;;;;;5037101;28;20484;-66
2021/08/19 12:08:57;;;;;;;1.80;0.90;;;24.00;52.20;;;;;;5033484;28;20017;-66
2021/08/19 12:11:26;;;;;;;1.20;0.77;;;24.00;52.20;;;;;;5038850;28;20021;-67
2021/08/19 12:13:53;;;;;;;1.40;0.80;;;24.00;52.20;;;;;;5041314;28;20083;-67
2021/08/19 12:16:28;;;;;;;1.30;1.00;;;24.00;52.20;;;;;;5041383;28;20033;-68
2021/08/19 12:19:17;;;;;;;1.25;0.73;;;24.00;52.20;;;;;;5025897;28;20095;-64
2021/08/19 12:21:52;;;;;;;1.30;0.88;;;24.00;52.20;;;;;;5034602;28;20178;-64
2021/08/19 12:24:42;;;;;;;0.75;0.60;;;24.00;52.20;;;;;;5040061;28;20085;-67
2021/08/19 12:27:19;;;;;;;1.02;0.80;;;24.00;52.20;;;;;;5043413;28;20732;-66
2021/08/19 12:29:51;;;;;;;1.85;0.80;;;24.00;52.30;;;;;;5046066;28;20048;-65
2021/08/19 12:32:23;;;;;;;1.10;0.80;;;24.00;52.30;;;;;;5045868;28;20108;-64
2021/08/19 12:34:59;;;;;;;1.08;0.80;;;24.00;52.30;;;;;;5045800;28;20075;-66
2021/08/19 12:37:27;;;;;;;2.08;0.80;;;24.00;52.40;;;;;;5044196;28;20052;-65
2021/08/19 12:39:53;;;;;;;1.50;0.75;;;24.00;52.40;;;;;;5045322;28;20028;-66
2021/08/19 12:42:19;;;;;;;1.02;0.77;;;24.00;52.40;;;;;;5047973;28;20048;-63
2021/08/19 12:45:07;;;;;;;1.63;0.90;;;24.00;52.40;;;;;;5046124;28;20029;-65
2021/08/19 12:47:39;;;;;;;1.07;0.80;;;24.00;52.40;;;;;;5059313;28;20052;-64
2021/08/19 12:50:05;;;;;;;1.13;0.80;;;24.00;52.40;;;;;;5049848;28;20797;-66